Terminal Aerodrome Forecast
Issued by NWS Pocatello, ID

Home | Current Version | Previous Version | Text Only | Print | Product List | Glossary On
Versions: 1 2 3 4 5 6 7 8 9 10 11 12 13 14 15
584
FTUS45 KPIH 131858 AAA
TAFIDA
TAF AMD
KIDA 131858Z 1319/1418 23018G28KT P6SM SCT040 SCT120
     FM140200 20015KT P6SM SCT040 BKN100
     FM140700 20012KT P6SM VCSH SCT025 BKN080
     FM141400 22011KT 2SM -SN BKN020 OVC040=

USA.gov is the U.S. government's official web portal to all federal, state and local government web resources and services.